Wetterdaten: Dienstag, 29.06.2010
Datum Zeit Temp. A. Feuchte A. Luftdruck Regen Wind Richtung Richtung Sonnenschein UV Solar Windben
29.06.2010 00:00 21,2 C 68 % 1015,0 hPa 0,0 mm 0,0 km/h (0 Bft) W-NW 292 0 min 0 UV-I 0 W/m 3,2 km/h (1 Bft)
29.06.2010 00:10 20,8 C 69 % 1015,0 hPa 0,0 mm 0,0 km/h (0 Bft) W-NW 292 0 min 0 UV-I 0 W/m 1,6 km/h (1 Bft)
29.06.2010 00:20 20,3 C 71 % 1015,0 hPa 0,0 mm 0,0 km/h (0 Bft) W-NW 292 0 min 0 UV-I 0 W/m 1,6 km/h (1 Bft)
29.06.2010 00:30 20,2 C 70 % 1015,0 hPa 0,0 mm 0,0 km/h (0 Bft) W-NW 292 0 min 0 UV-I 0 W/m 1,6 km/h (1 Bft)
29.06.2010 00:40 20,2 C 70 % 1015,0 hPa 0,0 mm 0,0 km/h (0 Bft) W-NW 292 0 min 0 UV-I 0 W/m 1,6 km/h (1 Bft)
29.06.2010 00:50 19,9 C 72 % 1015,0 hPa 0,0 mm 0,0 km/h (0 Bft) W-NW 292 0 min 0 UV-I 0 W/m 1,6 km/h (1 Bft)
29.06.2010 01:00 19,6 C 72 % 1015,0 hPa 0,0 mm 0,0 km/h (0 Bft) W-NW 292 0 min 0 UV-I 0 W/m 1,6 km/h (1 Bft)
29.06.2010 01:10 19,4 C 73 % 1015,0 hPa 0,0 mm 0,0 km/h (0 Bft) W-NW 292 0 min 0 UV-I 0 W/m 1,6 km/h (1 Bft)
29.06.2010 01:20 19,4 C 72 % 1015,0 hPa 0,0 mm 0,0 km/h (0 Bft) W-NW 292 0 min 0 UV-I 0 W/m 1,6 km/h (1 Bft)
29.06.2010 01:30 19,3 C 73 % 1015,0 hPa 0,0 mm 0,0 km/h (0 Bft) N 0 0 min 0 UV-I 0 W/m 0,0 km/h (0 Bft)
29.06.2010 01:40 19,1 C 73 % 1015,0 hPa 0,0 mm 0,0 km/h (0 Bft) W-NW 292 0 min 0 UV-I 0 W/m 1,6 km/h (1 Bft)
29.06.2010 01:50 18,8 C 74 % 1015,0 hPa 0,0 mm 0,0 km/h (0 Bft) W-NW 292 0 min 0 UV-I 0 W/m 1,6 km/h (1 Bft)
29.06.2010 02:00 18,7 C 74 % 1015,0 hPa 0,0 mm 0,0 km/h (0 Bft) W-NW 292 0 min 0 UV-I 0 W/m 3,2 km/h (1 Bft)
29.06.2010 02:10 18,6 C 74 % 1015,0 hPa 0,0 mm 0,0 km/h (0 Bft) W-NW 292 0 min 0 UV-I 0 W/m 1,6 km/h (1 Bft)
29.06.2010 02:20 18,6 C 75 % 1015,0 hPa 0,0 mm 0,0 km/h (0 Bft) W-NW 292 0 min 0 UV-I 0 W/m 1,6 km/h (1 Bft)
29.06.2010 02:30 18,3 C 75 % 1015,0 hPa 0,0 mm 0,0 km/h (0 Bft) W-NW 292 0 min 0 UV-I 0 W/m 3,2 km/h (1 Bft)
29.06.2010 02:40 18,2 C 75 % 1015,0 hPa 0,0 mm 0,0 km/h (0 Bft) W-NW 292 0 min 0 UV-I 0 W/m 3,2 km/h (1 Bft)
29.06.2010 02:50 18,2 C 75 % 1015,0 hPa 0,0 mm 0,0 km/h (0 Bft) W-NW 292 0 min 0 UV-I 0 W/m 3,2 km/h (1 Bft)
29.06.2010 03:00 18,2 C 75 % 1015,0 hPa 0,0 mm 0,0 km/h (0 Bft) N 0 0 min 0 UV-I 0 W/m 0,0 km/h (0 Bft)
29.06.2010 03:10 18,0 C 76 % 1015,0 hPa 0,0 mm 0,0 km/h (0 Bft) N 0 0 min 0 UV-I 0 W/m 0,0 km/h (0 Bft)
29.06.2010 03:20 17,9 C 75 % 1015,0 hPa 0,0 mm 0,0 km/h (0 Bft) N 0 0 min 0 UV-I 0 W/m 0,0 km/h (0 Bft)
29.06.2010 03:30 17,8 C 76 % 1015,0 hPa 0,0 mm 0,0 km/h (0 Bft) N 0 0 min 0 UV-I 0 W/m 0,0 km/h (0 Bft)
29.06.2010 03:40 17,6 C 77 % 1015,0 hPa 0,0 mm 0,0 km/h (0 Bft) N 0 0 min 0 UV-I 0 W/m 0,0 km/h (0 Bft)
29.06.2010 03:50 17,6 C 77 % 1015,0 hPa 0,0 mm 0,0 km/h (0 Bft) W-NW 292 0 min 0 UV-I 0 W/m 3,2 km/h (1 Bft)
29.06.2010 04:00 17,4 C 78 % 1015,0 hPa 0,0 mm 0,0 km/h (0 Bft) W-NW 292 0 min 0 UV-I 0 W/m 1,6 km/h (1 Bft)
29.06.2010 04:10 17,2 C 78 % 1015,0 hPa 0,0 mm 0,0 km/h (0 Bft) N 0 0 min 0 UV-I 0 W/m 0,0 km/h (0 Bft)
29.06.2010 04:20 16,9 C 79 % 1015,0 hPa 0,0 mm 0,0 km/h (0 Bft) N 0 0 min 0 UV-I 0 W/m 0,0 km/h (0 Bft)
29.06.2010 04:30 16,7 C 80 % 1015,0 hPa 0,0 mm 0,0 km/h (0 Bft) N 0 0 min 0 UV-I 0 W/m 0,0 km/h (0 Bft)
29.06.2010 04:40 16,6 C 80 % 1015,0 hPa 0,0 mm 0,0 km/h (0 Bft) W-NW 292 0 min 0 UV-I 0 W/m 1,6 km/h (1 Bft)
29.06.2010 04:50 16,6 C 80 % 1015,0 hPa 0,0 mm 0,0 km/h (0 Bft) N 0 0 min 0 UV-I 0 W/m 0,0 km/h (0 Bft)
29.06.2010 05:00 16,4 C 80 % 1015,0 hPa 0,0 mm 0,0 km/h (0 Bft) W-NW 292 0 min 0 UV-I 0 W/m 1,6 km/h (1 Bft)
29.06.2010 05:10 16,4 C 80 % 1015,0 hPa 0,0 mm 0,0 km/h (0 Bft) W-NW 292 0 min 0 UV-I 0 W/m 1,6 km/h (1 Bft)
29.06.2010 05:20 16,3 C 81 % 1015,0 hPa 0,0 mm 0,0 km/h (0 Bft) W-NW 292 0 min 0 UV-I 0 W/m 1,6 km/h (1 Bft)
29.06.2010 05:30 16,2 C 81 % 1015,0 hPa 0,0 mm 0,0 km/h (0 Bft) N 0 0 min 0 UV-I 5 W/m 0,0 km/h (0 Bft)
29.06.2010 05:40 16,2 C 81 % 1015,0 hPa 0,0 mm 0,0 km/h (0 Bft) W-NW 292 0 min 0 UV-I 12 W/m 1,6 km/h (1 Bft)
29.06.2010 05:50 16,3 C 81 % 1015,0 hPa 0,0 mm 0,0 km/h (0 Bft) W-NW 292 0 min 0 UV-I 18 W/m 1,6 km/h (1 Bft)
29.06.2010 06:00 16,3 C 81 % 1015,0 hPa 0,0 mm 0,0 km/h (0 Bft) N 0 0 min 0 UV-I 25 W/m 0,0 km/h (0 Bft)
29.06.2010 06:10 16,4 C 81 % 1015,0 hPa 0,0 mm 0,0 km/h (0 Bft) W-NW 292 0 min 0 UV-I 35 W/m 1,6 km/h (1 Bft)
29.06.2010 06:20 16,6 C 80 % 1015,0 hPa 0,0 mm 0,0 km/h (0 Bft) W-NW 292 0 min 0 UV-I 56 W/m 1,6 km/h (1 Bft)
29.06.2010 06:30 16,8 C 79 % 1015,0 hPa 0,0 mm 0,0 km/h (0 Bft) W-NW 292 0 min 0 UV-I 67 W/m 1,6 km/h (1 Bft)
29.06.2010 06:40 17,1 C 79 % 1015,0 hPa 0,0 mm 0,0 km/h (0 Bft) W-NW 292 0 min 0 UV-I 83 W/m 1,6 km/h (1 Bft)
29.06.2010 06:50 17,3 C 79 % 1015,0 hPa 0,0 mm 0,0 km/h (0 Bft) N 0 0 min 1 UV-I 100 W/m 0,0 km/h (0 Bft)
29.06.2010 07:00 17,6 C 78 % 1015,0 hPa 0,0 mm 0,0 km/h (0 Bft) W-NW 292 0 min 1 UV-I 114 W/m 1,6 km/h (1 Bft)
29.06.2010 07:10 17,9 C 78 % 1015,0 hPa 0,0 mm 0,0 km/h (0 Bft) N 0 0 min 1 UV-I 127 W/m 0,0 km/h (0 Bft)
29.06.2010 07:20 18,2 C 77 % 1015,0 hPa 0,0 mm 0,0 km/h (0 Bft) N 0 0 min 1 UV-I 153 W/m 0,0 km/h (0 Bft)
29.06.2010 07:30 18,6 C 75 % 1015,0 hPa 0,0 mm 0,0 km/h (0 Bft) W-NW 292 10 min 1 UV-I 172 W/m 3,2 km/h (1 Bft)
29.06.2010 07:40 18,9 C 74 % 1015,0 hPa 0,0 mm 0,0 km/h (0 Bft) W-NW 292 10 min 1 UV-I 195 W/m 3,2 km/h (1 Bft)
29.06.2010 07:50 19,2 C 72 % 1015,0 hPa 0,0 mm 0,0 km/h (0 Bft) W-NW 292 10 min 1 UV-I 225 W/m 3,2 km/h (1 Bft)
29.06.2010 08:00 19,6 C 71 % 1015,0 hPa 0,0 mm 0,0 km/h (0 Bft) W-NW 289 10 min 1 UV-I 250 W/m 0,0 km/h (0 Bft)
29.06.2010 08:10 19,7 C 71 % 1015,0 hPa 0,0 mm 0,0 km/h (0 Bft) W-NW 292 10 min 1 UV-I 272 W/m 3,2 km/h (1 Bft)
29.06.2010 08:20 20,1 C 70 % 1015,0 hPa 0,0 mm 0,0 km/h (0 Bft) W-NW 292 10 min 1 UV-I 304 W/m 1,6 km/h (1 Bft)
29.06.2010 08:30 20,4 C 69 % 1015,0 hPa 0,0 mm 0,0 km/h (0 Bft) W-NW 292 10 min 2 UV-I 341 W/m 6,4 km/h (2 Bft)
29.06.2010 08:40 20,4 C 68 % 1015,0 hPa 0,0 mm 0,0 km/h (0 Bft) W-NW 292 10 min 2 UV-I 387 W/m 4,8 km/h (1 Bft)
29.06.2010 08:50 20,8 C 66 % 1015,0 hPa 0,0 mm 1,6 km/h (1 Bft) W-NW 292 10 min 2 UV-I 397 W/m 4,8 km/h (1 Bft)
29.06.2010 09:00 21,0 C 66 % 1015,0 hPa 0,0 mm 0,0 km/h (0 Bft) W-NW 292 10 min 2 UV-I 434 W/m 3,2 km/h (1 Bft)
29.06.2010 09:10 21,3 C 65 % 1015,0 hPa 0,0 mm 1,6 km/h (1 Bft) W-NW 292 10 min 2 UV-I 462 W/m 4,8 km/h (1 Bft)
29.06.2010 09:20 21,7 C 65 % 1015,0 hPa 0,0 mm 1,6 km/h (1 Bft) W-NW 292 10 min 2 UV-I 489 W/m 4,8 km/h (1 Bft)
29.06.2010 09:30 21,9 C 65 % 1015,0 hPa 0,0 mm 1,6 km/h (1 Bft) W-NW 292 10 min 3 UV-I 517 W/m 4,8 km/h (1 Bft)
29.06.2010 09:40 22,2 C 63 % 1015,0 hPa 0,0 mm 1,6 km/h (1 Bft) W-NW 292 10 min 3 UV-I 531 W/m 8,0 km/h (2 Bft)
29.06.2010 09:50 22,5 C 62 % 1015,0 hPa 0,0 mm 1,6 km/h (1 Bft) W-NW 292 10 min 3 UV-I 550 W/m 4,8 km/h (1 Bft)
29.06.2010 10:00 22,6 C 62 % 1015,0 hPa 0,0 mm 1,6 km/h (1 Bft) W-NW 292 10 min 3 UV-I 555 W/m 8,0 km/h (2 Bft)
29.06.2010 10:10 22,8 C 61 % 1015,0 hPa 0,0 mm 1,6 km/h (1 Bft) W-NW 292 10 min 3 UV-I 571 W/m 9,7 km/h (2 Bft)
29.06.2010 10:20 23,1 C 61 % 1015,0 hPa 0,0 mm 1,6 km/h (1 Bft) W-NW 292 10 min 4 UV-I 624 W/m 9,7 km/h (2 Bft)
29.06.2010 10:30 23,5 C 61 % 1015,0 hPa 0,0 mm 3,2 km/h (1 Bft) W-NW 292 10 min 4 UV-I 645 W/m 8,0 km/h (2 Bft)
29.06.2010 10:40 24,2 C 59 % 1015,0 hPa 0,0 mm 3,2 km/h (1 Bft) W-NW 292 10 min 4 UV-I 668 W/m 11,3 km/h (2 Bft)
29.06.2010 10:50 24,2 C 59 % 1015,0 hPa 0,0 mm 3,2 km/h (1 Bft) W 270 10 min 4 UV-I 694 W/m 11,3 km/h (2 Bft)
29.06.2010 11:00 24,5 C 58 % 1015,0 hPa 0,0 mm 3,2 km/h (1 Bft) W 270 10 min 5 UV-I 710 W/m 9,7 km/h (2 Bft)
29.06.2010 11:10 25,1 C 59 % 1015,0 hPa 0,0 mm 3,2 km/h (1 Bft) W 270 10 min 5 UV-I 722 W/m 16,1 km/h (3 Bft)
29.06.2010 11:20 25,7 C 55 % 1015,0 hPa 0,0 mm 3,2 km/h (1 Bft) W 270 10 min 5 UV-I 749 W/m 12,9 km/h (3 Bft)
29.06.2010 11:30 25,8 C 55 % 1015,0 hPa 0,0 mm 4,8 km/h (1 Bft) W 270 10 min 5 UV-I 770 W/m 12,9 km/h (3 Bft)
29.06.2010 11:40 25,7 C 56 % 1015,0 hPa 0,0 mm 4,8 km/h (1 Bft) W 270 10 min 5 UV-I 777 W/m 14,5 km/h (3 Bft)
29.06.2010 11:50 25,8 C 54 % 1015,0 hPa 0,0 mm 4,8 km/h (1 Bft) W 270 10 min 6 UV-I 798 W/m 12,9 km/h (3 Bft)
29.06.2010 12:00 26,2 C 53 % 1015,0 hPa 0,0 mm 3,2 km/h (1 Bft) W 270 10 min 6 UV-I 814 W/m 9,7 km/h (2 Bft)
29.06.2010 12:10 26,6 C 51 % 1015,0 hPa 0,0 mm 3,2 km/h (1 Bft) W 270 10 min 6 UV-I 840 W/m 11,3 km/h (2 Bft)
29.06.2010 12:20 26,9 C 49 % 1015,0 hPa 0,0 mm 3,2 km/h (1 Bft) W 270 10 min 6 UV-I 851 W/m 11,3 km/h (2 Bft)
29.06.2010 12:30 27,0 C 46 % 1015,0 hPa 0,0 mm 3,2 km/h (1 Bft) W 270 10 min 6 UV-I 863 W/m 12,9 km/h (3 Bft)
29.06.2010 12:40 27,4 C 45 % 1015,0 hPa 0,0 mm 3,2 km/h (1 Bft) W-NW 292 10 min 6 UV-I 951 W/m 11,3 km/h (2 Bft)
29.06.2010 12:50 27,3 C 49 % 1015,0 hPa 0,0 mm 3,2 km/h (1 Bft) NW 315 10 min 5 UV-I 610 W/m 14,5 km/h (3 Bft)
29.06.2010 13:00 26,9 C 47 % 1015,0 hPa 0,0 mm 3,2 km/h (1 Bft) NW 315 10 min 7 UV-I 928 W/m 11,3 km/h (2 Bft)
29.06.2010 13:10 27,6 C 46 % 1015,0 hPa 0,0 mm 4,8 km/h (1 Bft) W-SW 247 10 min 7 UV-I 926 W/m 14,5 km/h (3 Bft)
29.06.2010 13:20 27,6 C 43 % 1015,0 hPa 0,0 mm 4,8 km/h (1 Bft) W 270 10 min 6 UV-I 861 W/m 16,1 km/h (3 Bft)
29.06.2010 13:30 28,3 C 40 % 1015,0 hPa 0,0 mm 4,8 km/h (1 Bft) W 270 10 min 7 UV-I 907 W/m 12,9 km/h (3 Bft)
29.06.2010 13:40 28,7 C 40 % 1015,0 hPa 0,0 mm 6,4 km/h (2 Bft) W 270 10 min 7 UV-I 900 W/m 19,3 km/h (3 Bft)
29.06.2010 13:50 28,6 C 42 % 1015,0 hPa 0,0 mm 4,8 km/h (1 Bft) W 270 10 min 7 UV-I 875 W/m 12,9 km/h (3 Bft)
29.06.2010 14:00 28,9 C 41 % 1015,0 hPa 0,0 mm 6,4 km/h (2 Bft) W 270 10 min 7 UV-I 886 W/m 17,7 km/h (3 Bft)
29.06.2010 14:10 29,0 C 39 % 1015,0 hPa 0,0 mm 6,4 km/h (2 Bft) SW 225 10 min 7 UV-I 902 W/m 16,1 km/h (3 Bft)
29.06.2010 14:20 28,7 C 40 % 1015,0 hPa 0,0 mm 6,4 km/h (2 Bft) W 270 10 min 7 UV-I 891 W/m 16,1 km/h (3 Bft)
29.06.2010 14:30 29,3 C 38 % 1015,0 hPa 0,0 mm 4,8 km/h (1 Bft) W-SW 247 10 min 6 UV-I 907 W/m 11,3 km/h (2 Bft)
29.06.2010 14:40 29,7 C 38 % 1015,0 hPa 0,0 mm 8,0 km/h (2 Bft) W 270 10 min 6 UV-I 893 W/m 16,1 km/h (3 Bft)
29.06.2010 14:50 29,4 C 40 % 1015,0 hPa 0,0 mm 4,8 km/h (1 Bft) W 270 10 min 6 UV-I 940 W/m 16,1 km/h (3 Bft)
29.06.2010 15:00 29,8 C 41 % 1015,0 hPa 0,0 mm 6,4 km/h (2 Bft) W-SW 247 10 min 6 UV-I 914 W/m 17,7 km/h (3 Bft)
29.06.2010 15:10 29,5 C 41 % 1015,0 hPa 0,0 mm 8,0 km/h (2 Bft) W-SW 247 10 min 6 UV-I 874 W/m 17,7 km/h (3 Bft)
29.06.2010 15:20 28,7 C 42 % 1015,0 hPa 0,0 mm 6,4 km/h (2 Bft) W 270 10 min 5 UV-I 860 W/m 17,7 km/h (3 Bft)
29.06.2010 15:30 29,1 C 40 % 1015,0 hPa 0,0 mm 4,8 km/h (1 Bft) W-SW 247 10 min 5 UV-I 838 W/m 14,5 km/h (3 Bft)
29.06.2010 15:40 29,1 C 39 % 1015,0 hPa 0,0 mm 6,4 km/h (2 Bft) W-NW 292 10 min 5 UV-I 765 W/m 16,1 km/h (3 Bft)
29.06.2010 15:50 29,2 C 37 % 1015,0 hPa 0,0 mm 6,4 km/h (2 Bft) W 270 10 min 5 UV-I 833 W/m 16,1 km/h (3 Bft)
29.06.2010 16:00 28,8 C 39 % 1015,0 hPa 0,0 mm 4,5 km/h (1 Bft) W-NW 289 10 min 4 UV-I 633 W/m 8,0 km/h (2 Bft)
29.06.2010 16:10 28,8 C 38 % 1015,0 hPa 0,0 mm 8,0 km/h (2 Bft) W-NW 292 10 min 4 UV-I 782 W/m 25,7 km/h (4 Bft)
29.06.2010 16:20 29,1 C 37 % 1015,0 hPa 0,0 mm 8,0 km/h (2 Bft) W 270 10 min 4 UV-I 824 W/m 12,9 km/h (3 Bft)
29.06.2010 16:30 29,5 C 36 % 1015,0 hPa 0,0 mm 4,8 km/h (1 Bft) W-NW 292 10 min 4 UV-I 772 W/m 16,1 km/h (3 Bft)
29.06.2010 16:40 29,3 C 37 % 1015,0 hPa 0,0 mm 4,8 km/h (1 Bft) W-NW 292 10 min 4 UV-I 733 W/m 16,1 km/h (3 Bft)
29.06.2010 16:50 29,4 C 36 % 1015,0 hPa 0,0 mm 8,0 km/h (2 Bft) W 270 10 min 4 UV-I 705 W/m 14,5 km/h (3 Bft)
29.06.2010 17:00 29,3 C 36 % 1015,0 hPa 0,0 mm 4,8 km/h (1 Bft) W-NW 292 10 min 3 UV-I 729 W/m 14,5 km/h (3 Bft)
29.06.2010 17:10 29,4 C 35 % 1015,0 hPa 0,0 mm 6,4 km/h (2 Bft) W-SW 247 0 min 3 UV-I 339 W/m 16,1 km/h (3 Bft)
29.06.2010 17:20 28,8 C 36 % 1015,0 hPa 0,0 mm 6,4 km/h (2 Bft) W 270 0 min 2 UV-I 260 W/m 16,1 km/h (3 Bft)
29.06.2010 17:30 28,4 C 37 % 1015,0 hPa 0,0 mm 6,4 km/h (2 Bft) W 270 0 min 1 UV-I 237 W/m 14,5 km/h (3 Bft)
29.06.2010 17:40 28,2 C 38 % 1015,0 hPa 0,0 mm 6,4 km/h (2 Bft) W 270 0 min 2 UV-I 299 W/m 16,1 km/h (3 Bft)
29.06.2010 17:50 28,2 C 39 % 1015,0 hPa 0,0 mm 6,4 km/h (2 Bft) W 270 0 min 2 UV-I 260 W/m 12,9 km/h (3 Bft)
29.06.2010 18:00 27,9 C 39 % 1015,0 hPa 0,0 mm 4,8 km/h (1 Bft) W-SW 247 0 min 1 UV-I 149 W/m 11,3 km/h (2 Bft)
29.06.2010 18:10 27,7 C 40 % 1015,0 hPa 0,0 mm 6,4 km/h (2 Bft) W 270 0 min 1 UV-I 116 W/m 19,3 km/h (3 Bft)
29.06.2010 18:20 27,4 C 40 % 1015,0 hPa 0,0 mm 6,4 km/h (2 Bft) W 270 0 min 1 UV-I 107 W/m 16,1 km/h (3 Bft)
29.06.2010 18:30 27,0 C 42 % 1015,0 hPa 0,0 mm 8,0 km/h (2 Bft) W 270 0 min 1 UV-I 72 W/m 20,9 km/h (4 Bft)
29.06.2010 18:40 26,4 C 44 % 1015,0 hPa 0,0 mm 8,0 km/h (2 Bft) W 270 0 min 0 UV-I 67 W/m 16,1 km/h (3 Bft)
29.06.2010 18:50 25,9 C 46 % 1015,0 hPa 0,0 mm 9,7 km/h (2 Bft) W 270 0 min 1 UV-I 95 W/m 24,1 km/h (4 Bft)
29.06.2010 19:00 25,4 C 47 % 1015,0 hPa 0,0 mm 6,4 km/h (2 Bft) W 270 0 min 1 UV-I 100 W/m 17,7 km/h (3 Bft)
29.06.2010 19:10 25,3 C 49 % 1015,0 hPa 0,0 mm 6,4 km/h (2 Bft) W-SW 247 0 min 0 UV-I 58 W/m 14,5 km/h (3 Bft)
29.06.2010 19:20 24,8 C 51 % 1015,0 hPa 0,0 mm 6,4 km/h (2 Bft) W-SW 247 0 min 1 UV-I 146 W/m 19,3 km/h (3 Bft)
29.06.2010 19:30 24,3 C 53 % 1015,0 hPa 0,0 mm 3,2 km/h (1 Bft) W-SW 247 10 min 1 UV-I 174 W/m 9,7 km/h (2 Bft)
29.06.2010 19:40 24,4 C 55 % 1015,0 hPa 0,0 mm 3,2 km/h (1 Bft) SW 225 10 min 1 UV-I 190 W/m 11,3 km/h (2 Bft)
29.06.2010 19:50 24,2 C 59 % 1015,0 hPa 0,0 mm 3,2 km/h (1 Bft) SW 225 10 min 1 UV-I 285 W/m 12,9 km/h (3 Bft)
29.06.2010 20:00 23,9 C 61 % 1015,0 hPa 0,0 mm 3,2 km/h (1 Bft) SW 225 10 min 1 UV-I 211 W/m 12,9 km/h (3 Bft)
29.06.2010 20:10 23,8 C 61 % 1015,0 hPa 0,0 mm 1,6 km/h (1 Bft) S-SW 202 10 min 1 UV-I 220 W/m 11,3 km/h (2 Bft)
29.06.2010 20:20 23,8 C 62 % 1015,0 hPa 0,0 mm 1,6 km/h (1 Bft) SW 225 10 min 0 UV-I 220 W/m 6,4 km/h (2 Bft)
29.06.2010 20:30 23,5 C 63 % 1015,0 hPa 0,0 mm 1,6 km/h (1 Bft) S 180 10 min 0 UV-I 120 W/m 8,0 km/h (2 Bft)
29.06.2010 20:40 23,2 C 65 % 1015,0 hPa 0,0 mm 1,6 km/h (1 Bft) S 180 0 min 0 UV-I 72 W/m 8,0 km/h (2 Bft)
29.06.2010 20:50 22,6 C 67 % 1015,0 hPa 0,0 mm 1,6 km/h (1 Bft) S-SW 202 0 min 0 UV-I 39 W/m 6,4 km/h (2 Bft)
29.06.2010 21:00 22,2 C 68 % 1015,0 hPa 0,0 mm 0,0 km/h (0 Bft) S 180 0 min 0 UV-I 30 W/m 4,8 km/h (1 Bft)
29.06.2010 21:10 22,0 C 68 % 1015,0 hPa 0,0 mm 1,6 km/h (1 Bft) S-SW 202 0 min 0 UV-I 21 W/m 8,0 km/h (2 Bft)
29.06.2010 21:20 21,8 C 70 % 1015,0 hPa 0,0 mm 0,0 km/h (0 Bft) S 180 0 min 0 UV-I 19 W/m 4,8 km/h (1 Bft)
29.06.2010 21:30 21,6 C 73 % 1015,0 hPa 0,0 mm 0,0 km/h (0 Bft) S 180 10 min 0 UV-I 18 W/m 3,2 km/h (1 Bft)
29.06.2010 21:40 21,3 C 74 % 1015,0 hPa 0,0 mm 0,0 km/h (0 Bft) S 180 0 min 0 UV-I 9 W/m 1,6 km/h (1 Bft)
29.06.2010 21:50 21,2 C 75 % 1015,0 hPa 0,0 mm 0,0 km/h (0 Bft) S 180 0 min 0 UV-I 0 W/m 1,6 km/h (1 Bft)
29.06.2010 22:00 20,9 C 75 % 1015,0 hPa 0,0 mm 0,0 km/h (0 Bft) S 180 0 min 0 UV-I 0 W/m 1,6 km/h (1 Bft)
29.06.2010 22:10 20,8 C 75 % 1015,0 hPa 0,0 mm 0,0 km/h (0 Bft) S 180 0 min 0 UV-I 0 W/m 1,6 km/h (1 Bft)
29.06.2010 22:20 20,7 C 76 % 1015,0 hPa 0,0 mm 0,0 km/h (0 Bft) S 180 0 min 0 UV-I 0 W/m 1,6 km/h (1 Bft)
29.06.2010 22:30 20,6 C 76 % 1015,0 hPa 0,0 mm 0,0 km/h (0 Bft) S 180 0 min 0 UV-I 0 W/m 1,6 km/h (1 Bft)
29.06.2010 22:40 20,5 C 75 % 1015,0 hPa 0,0 mm 0,0 km/h (0 Bft) S 180 0 min 0 UV-I 0 W/m 1,6 km/h (1 Bft)
29.06.2010 22:50 20,4 C 76 % 1015,0 hPa 0,0 mm 0,0 km/h (0 Bft) S 180 0 min 0 UV-I 0 W/m 1,6 km/h (1 Bft)
29.06.2010 23:00 20,3 C 76 % 1015,0 hPa 0,0 mm 0,0 km/h (0 Bft) N 0 0 min 0 UV-I 0 W/m 0,0 km/h (0 Bft)
29.06.2010 23:10 20,2 C 77 % 1015,0 hPa 0,0 mm 0,0 km/h (0 Bft) S 180 0 min 0 UV-I 0 W/m 1,6 km/h (1 Bft)
29.06.2010 23:20 20,1 C 77 % 1015,0 hPa 0,0 mm 0,0 km/h (0 Bft) S 180 0 min 0 UV-I 0 W/m 1,6 km/h (1 Bft)
29.06.2010 23:30 19,9 C 78 % 1015,0 hPa 0,0 mm 0,0 km/h (0 Bft) S 180 0 min 0 UV-I 0 W/m 3,2 km/h (1 Bft)
29.06.2010 23:40 19,7 C 78 % 1015,0 hPa 0,0 mm 0,0 km/h (0 Bft) S 180 0 min 0 UV-I 0 W/m 1,6 km/h (1 Bft)
29.06.2010 23:50 19,5 C 79 % 1015,0 hPa 0,0 mm 0,0 km/h (0 Bft) S-SW 202 0 min 0 UV-I 0 W/m 4,8 km/h (1 Bft)
_ Min-Zeit 05:20 17:10 00:00 - 00:00 - - - - - 01:30
Minimum _ 16,2 C 35 % 1015,0 hPa - 0,0 km/h (0 Bft) - - - - - 0,0 km/h (0 Bft)
_ Max-Zeit 14:40 05:20 00:00 00:00 18:50 - - 07:30 13:00 12:40 16:10
Maximum _ 30,1 C 81 % 1015,0 hPa 0,0 mm 9,7 km/h
W (2 Bft)
- - 10 min 7 UV-I 951 W/m 25,7 km/h
W (4 Bft)
Durchschnitt _ 22,7 C 62 % 1015,0 hPa #0,0 mm 2,3 km/h (1 Bft) W - #11:00 h 4 UV-I 455 W/m 7,5 km/h (2 Bft)